sensor_id;sensor_type;location;lat;lon;timestamp;pressure;altitude;pressure_sealevel;temperature;humidity
66396;BME280;53207;51.378;-1.342;2023-02-04T00:01:22;102226.63;;;19.80;35.74
66396;BME280;53207;51.378;-1.342;2023-02-04T00:03:50;102227.66;;;19.84;35.70
66396;BME280;53207;51.378;-1.342;2023-02-04T00:06:17;102227.88;;;19.57;35.77
66396;BME280;53207;51.378;-1.342;2023-02-04T00:08:44;102229.32;;;19.53;35.83
66396;BME280;53207;51.378;-1.342;2023-02-04T00:11:11;102230.50;;;19.68;35.95
66396;BME280;53207;51.378;-1.342;2023-02-04T00:13:39;102230.83;;;19.67;35.97
66396;BME280;53207;51.378;-1.342;2023-02-04T00:16:06;102232.12;;;19.66;35.99
66396;BME280;53207;51.378;-1.342;2023-02-04T00:18:33;102235.97;;;19.60;36.09
66396;BME280;53207;51.378;-1.342;2023-02-04T00:21:01;102237.87;;;19.60;36.07
66396;BME280;53207;51.378;-1.342;2023-02-04T00:23:28;102238.00;;;19.55;36.13
66396;BME280;53207;51.378;-1.342;2023-02-04T00:25:55;102235.18;;;19.54;36.14
66396;BME280;53207;51.378;-1.342;2023-02-04T00:28:23;102234.51;;;19.50;36.17
66396;BME280;53207;51.378;-1.342;2023-02-04T00:30:50;102235.09;;;19.52;36.15
66396;BME280;53207;51.378;-1.342;2023-02-04T00:33:17;102235.45;;;19.46;36.18
66396;BME280;53207;51.378;-1.342;2023-02-04T00:35:44;102233.04;;;19.77;36.13
66396;BME280;53207;51.378;-1.342;2023-02-04T00:38:12;102232.29;;;19.76;36.13
66396;BME280;53207;51.378;-1.342;2023-02-04T00:40:39;102231.18;;;19.49;36.11
66396;BME280;53207;51.378;-1.342;2023-02-04T00:43:06;102231.98;;;19.46;36.14
66396;BME280;53207;51.378;-1.342;2023-02-04T00:45:34;102229.55;;;19.42;36.17
66396;BME280;53207;51.378;-1.342;2023-02-04T00:48:01;102232.57;;;19.47;36.08
66396;BME280;53207;51.378;-1.342;2023-02-04T00:50:28;102229.34;;;19.41;36.23
66396;BME280;53207;51.378;-1.342;2023-02-04T00:52:56;102231.18;;;19.38;36.28
66396;BME280;53207;51.378;-1.342;2023-02-04T00:55:23;102234.00;;;19.39;36.25
66396;BME280;53207;51.378;-1.342;2023-02-04T00:57:50;102234.03;;;19.66;36.25
66396;BME280;53207;51.378;-1.342;2023-02-04T01:00:18;102232.99;;;19.36;36.29
66396;BME280;53207;51.378;-1.342;2023-02-04T01:02:46;102236.31;;;19.40;36.21
66396;BME280;53207;51.378;-1.342;2023-02-04T01:05:13;102241.08;;;19.63;36.24
66396;BME280;53207;51.378;-1.342;2023-02-04T01:07:40;102241.58;;;19.57;36.30
66396;BME280;53207;51.378;-1.342;2023-02-04T01:10:08;102243.03;;;19.62;36.23
66396;BME280;53207;51.378;-1.342;2023-02-04T01:12:36;102244.41;;;19.52;36.31
66396;BME280;53207;51.378;-1.342;2023-02-04T01:15:04;102245.92;;;19.21;36.34
66396;BME280;53207;51.378;-1.342;2023-02-04T01:17:31;102251.30;;;19.21;36.33
66396;BME280;53207;51.378;-1.342;2023-02-04T01:19:59;102250.98;;;19.30;36.21
66396;BME280;53207;51.378;-1.342;2023-02-04T01:22:26;102256.78;;;19.18;36.33
66396;BME280;53207;51.378;-1.342;2023-02-04T01:24:53;102257.67;;;19.41;36.36
66396;BME280;53207;51.378;-1.342;2023-02-04T01:27:20;102259.00;;;19.22;36.25
66396;BME280;53207;51.378;-1.342;2023-02-04T01:29:48;102261.56;;;19.58;36.39
66396;BME280;53207;51.378;-1.342;2023-02-04T01:32:15;102265.33;;;19.33;36.42
66396;BME280;53207;51.378;-1.342;2023-02-04T01:34:43;102269.45;;;19.27;36.48
66396;BME280;53207;51.378;-1.342;2023-02-04T01:37:10;102273.02;;;19.53;36.43
66396;BME280;53207;51.378;-1.342;2023-02-04T01:39:37;102271.21;;;19.45;36.53
66396;BME280;53207;51.378;-1.342;2023-02-04T01:42:04;102270.93;;;18.93;36.54
66396;BME280;53207;51.378;-1.342;2023-02-04T01:44:31;102273.57;;;18.90;36.55
66396;BME280;53207;51.378;-1.342;2023-02-04T01:46:59;102275.30;;;19.40;36.51
66396;BME280;53207;51.378;-1.342;2023-02-04T01:49:26;102275.70;;;19.40;36.49
66396;BME280;53207;51.378;-1.342;2023-02-04T01:51:54;102274.51;;;19.37;36.54
66396;BME280;53207;51.378;-1.342;2023-02-04T01:54:22;102275.01;;;19.45;36.41
66396;BME280;53207;51.378;-1.342;2023-02-04T01:56:49;102278.13;;;19.13;36.52
66396;BME280;53207;51.378;-1.342;2023-02-04T01:59:17;102279.46;;;18.88;36.47
66396;BME280;53207;51.378;-1.342;2023-02-04T02:01:46;102278.95;;;19.14;36.46
66396;BME280;53207;51.378;-1.342;2023-02-04T02:04:16;102282.68;;;19.40;36.38
66396;BME280;53207;51.378;-1.342;2023-02-04T02:06:47;102286.81;;;19.40;36.36
66396;BME280;53207;51.378;-1.342;2023-02-04T02:09:15;102290.67;;;18.92;36.32
66396;BME280;53207;51.378;-1.342;2023-02-04T02:11:43;102290.77;;;19.19;36.29
66396;BME280;53207;51.378;-1.342;2023-02-04T02:14:10;102287.03;;;18.83;36.38
66396;BME280;53207;51.378;-1.342;2023-02-04T02:16:38;102289.28;;;18.84;36.36
66396;BME280;53207;51.378;-1.342;2023-02-04T02:19:06;102288.76;;;19.11;36.32
66396;BME280;53207;51.378;-1.342;2023-02-04T02:21:39;102286.50;;;18.81;36.34
66396;BME280;53207;51.378;-1.342;2023-02-04T02:24:25;102287.07;;;19.07;36.35
66396;BME280;53207;51.378;-1.342;2023-02-04T02:26:53;102285.11;;;19.06;36.34
66396;BME280;53207;51.378;-1.342;2023-02-04T02:29:22;102283.53;;;19.27;36.33
66396;BME280;53207;51.378;-1.342;2023-02-04T02:31:50;102282.54;;;18.83;36.26
66396;BME280;53207;51.378;-1.342;2023-02-04T02:34:18;102283.87;;;19.23;36.34
66396;BME280;53207;51.378;-1.342;2023-02-04T02:36:45;102280.87;;;18.73;36.34
66396;BME280;53207;51.378;-1.342;2023-02-04T02:39:12;102283.25;;;19.18;36.38
66396;BME280;53207;51.378;-1.342;2023-02-04T02:41:40;102280.58;;;19.17;36.37
66396;BME280;53207;51.378;-1.342;2023-02-04T02:44:08;102281.50;;;19.17;36.37
66396;BME280;53207;51.378;-1.342;2023-02-04T02:46:37;102279.81;;;18.94;36.35
66396;BME280;53207;51.378;-1.342;2023-02-04T02:49:05;102277.78;;;19.16;36.34
66396;BME280;53207;51.378;-1.342;2023-02-04T02:51:32;102272.47;;;18.96;36.33
66396;BME280;53207;51.378;-1.342;2023-02-04T02:54:00;102271.27;;;18.97;36.28
66396;BME280;53207;51.378;-1.342;2023-02-04T02:56:27;102269.47;;;18.94;36.29
66396;BME280;53207;51.378;-1.342;2023-02-04T02:58:54;102267.81;;;19.15;36.29
66396;BME280;53207;51.378;-1.342;2023-02-04T03:01:22;102267.52;;;18.91;36.29
66396;BME280;53207;51.378;-1.342;2023-02-04T03:03:50;102266.58;;;18.64;36.29
66396;BME280;53207;51.378;-1.342;2023-02-04T03:06:20;102267.02;;;18.66;36.24
66396;BME280;53207;51.378;-1.342;2023-02-04T03:08:51;102267.01;;;18.94;36.26
66396;BME280;53207;51.378;-1.342;2023-02-04T03:11:19;102264.87;;;18.92;36.23
66396;BME280;53207;51.378;-1.342;2023-02-04T03:13:46;102263.83;;;19.14;36.21
66396;BME280;53207;51.378;-1.342;2023-02-04T03:16:13;102263.31;;;18.91;36.24
66396;BME280;53207;51.378;-1.342;2023-02-04T03:18:41;102264.36;;;18.94;36.21
66396;BME280;53207;51.378;-1.342;2023-02-04T03:21:08;102263.23;;;18.92;36.22
66396;BME280;53207;51.378;-1.342;2023-02-04T03:23:35;102262.57;;;18.84;36.28
66396;BME280;53207;51.378;-1.342;2023-02-04T03:26:03;102264.17;;;19.08;36.28
66396;BME280;53207;51.378;-1.342;2023-02-04T03:28:31;102265.52;;;19.05;36.33
66396;BME280;53207;51.378;-1.342;2023-02-04T03:30:58;102265.63;;;18.82;36.31
66396;BME280;53207;51.378;-1.342;2023-02-04T03:33:27;102265.62;;;19.04;36.32
66396;BME280;53207;51.378;-1.342;2023-02-04T03:35:54;102260.41;;;19.04;36.31
66396;BME280;53207;51.378;-1.342;2023-02-04T03:38:22;102259.43;;;19.04;36.30
66396;BME280;53207;51.378;-1.342;2023-02-04T03:40:49;102258.00;;;18.82;36.30
66396;BME280;53207;51.378;-1.342;2023-02-04T03:43:16;102260.88;;;18.79;36.33
66396;BME280;53207;51.378;-1.342;2023-02-04T03:45:44;102260.70;;;18.77;36.37
66396;BME280;53207;51.378;-1.342;2023-02-04T03:48:11;102259.93;;;18.98;36.36
66396;BME280;53207;51.378;-1.342;2023-02-04T03:50:38;102259.94;;;18.99;36.35
66396;BME280;53207;51.378;-1.342;2023-02-04T03:53:06;102263.69;;;18.98;36.33
66396;BME280;53207;51.378;-1.342;2023-02-04T03:55:33;102265.00;;;18.72;36.39
66396;BME280;53207;51.378;-1.342;2023-02-04T03:58:00;102265.50;;;18.76;36.36
66396;BME280;53207;51.378;-1.342;2023-02-04T04:00:28;102267.54;;;18.95;36.34
66396;BME280;53207;51.378;-1.342;2023-02-04T04:02:55;102270.36;;;18.68;36.43
66396;BME280;53207;51.378;-1.342;2023-02-04T04:05:22;102268.34;;;18.95;36.36
66396;BME280;53207;51.378;-1.342;2023-02-04T04:07:49;102268.88;;;18.88;36.43
66396;BME280;53207;51.378;-1.342;2023-02-04T04:10:17;102270.44;;;18.91;36.39
66396;BME280;53207;51.378;-1.342;2023-02-04T04:12:44;102271.52;;;18.86;36.43
66396;BME280;53207;51.378;-1.342;2023-02-04T04:15:12;102271.15;;;18.91;36.40
66396;BME280;53207;51.378;-1.342;2023-02-04T04:17:39;102271.97;;;18.90;36.39
66396;BME280;53207;51.378;-1.342;2023-02-04T04:20:08;102275.74;;;18.86;36.44
66396;BME280;53207;51.378;-1.342;2023-02-04T04:22:35;102278.25;;;18.82;36.45
66396;BME280;53207;51.378;-1.342;2023-02-04T04:25:02;102278.47;;;18.84;36.40
66396;BME280;53207;51.378;-1.342;2023-02-04T04:27:30;102282.82;;;18.62;36.40
66396;BME280;53207;51.378;-1.342;2023-02-04T04:29:57;102284.61;;;18.82;36.42
66396;BME280;53207;51.378;-1.342;2023-02-04T04:32:24;102284.23;;;18.83;36.41
66396;BME280;53207;51.378;-1.342;2023-02-04T04:34:51;102287.53;;;18.79;36.45
66396;BME280;53207;51.378;-1.342;2023-02-04T04:37:19;102288.97;;;18.56;36.45
66396;BME280;53207;51.378;-1.342;2023-02-04T04:39:46;102290.10;;;18.80;36.41
66396;BME280;53207;51.378;-1.342;2023-02-04T04:42:13;102288.51;;;18.82;36.40
66396;BME280;53207;51.378;-1.342;2023-02-04T04:44:41;102290.68;;;18.72;36.48
66396;BME280;53207;51.378;-1.342;2023-02-04T04:47:08;102290.02;;;18.71;36.50
66396;BME280;53207;51.378;-1.342;2023-02-04T04:49:35;102287.43;;;18.69;36.49
66396;BME280;53207;51.378;-1.342;2023-02-04T04:52:03;102288.61;;;18.70;36.45
66396;BME280;53207;51.378;-1.342;2023-02-04T04:54:30;102289.72;;;18.66;36.48
66396;BME280;53207;51.378;-1.342;2023-02-04T04:56:57;102286.75;;;18.71;36.38
66396;BME280;53207;51.378;-1.342;2023-02-04T04:59:24;102286.55;;;18.67;36.43
66396;BME280;53207;51.378;-1.342;2023-02-04T05:01:52;102284.56;;;18.69;36.40
66396;BME280;53207;51.378;-1.342;2023-02-04T05:04:19;102282.59;;;18.68;36.39
66396;BME280;53207;51.378;-1.342;2023-02-04T05:06:46;102283.34;;;18.68;36.38
66396;BME280;53207;51.378;-1.342;2023-02-04T05:09:13;102283.27;;;18.66;36.39
66396;BME280;53207;51.378;-1.342;2023-02-04T05:11:41;102287.17;;;18.55;36.51
66396;BME280;53207;51.378;-1.342;2023-02-04T05:14:09;102286.35;;;18.52;36.54
66396;BME280;53207;51.378;-1.342;2023-02-04T05:16:36;102289.37;;;18.56;36.48
66396;BME280;53207;51.378;-1.342;2023-02-04T05:19:04;102290.39;;;18.53;36.53
66396;BME280;53207;51.378;-1.342;2023-02-04T05:21:31;102293.41;;;18.56;36.44
66396;BME280;53207;51.378;-1.342;2023-02-04T05:23:58;102295.50;;;18.53;36.48
66396;BME280;53207;51.378;-1.342;2023-02-04T05:26:26;102298.56;;;18.54;36.44
66396;BME280;53207;51.378;-1.342;2023-02-04T05:28:53;102299.76;;;18.50;36.48
66396;BME280;53207;51.378;-1.342;2023-02-04T05:31:20;102302.19;;;18.51;36.47
66396;BME280;53207;51.378;-1.342;2023-02-04T05:33:47;102307.16;;;18.51;36.41
66396;BME280;53207;51.378;-1.342;2023-02-04T05:36:15;102306.62;;;18.39;36.54
66396;BME280;53207;51.378;-1.342;2023-02-04T05:38:42;102307.13;;;18.43;36.49
66396;BME280;53207;51.378;-1.342;2023-02-04T05:41:09;102312.13;;;18.47;36.45
66396;BME280;53207;51.378;-1.342;2023-02-04T05:43:37;102309.11;;;18.47;36.46
66396;BME280;53207;51.378;-1.342;2023-02-04T05:46:04;102303.41;;;18.33;36.59
66396;BME280;53207;51.378;-1.342;2023-02-04T05:48:31;102304.59;;;18.38;36.48
66396;BME280;53207;51.378;-1.342;2023-02-04T05:50:58;102305.57;;;18.39;36.46
66396;BME280;53207;51.378;-1.342;2023-02-04T05:53:26;102304.54;;;18.32;36.51
66396;BME280;53207;51.378;-1.342;2023-02-04T05:55:53;102309.40;;;18.39;36.44
66396;BME280;53207;51.378;-1.342;2023-02-04T05:58:20;102309.47;;;18.36;36.45
66396;BME280;53207;51.378;-1.342;2023-02-04T06:00:48;102309.28;;;18.30;36.51
66396;BME280;53207;51.378;-1.342;2023-02-04T06:03:15;102312.65;;;18.38;36.41
66396;BME280;53207;51.378;-1.342;2023-02-04T06:05:42;102315.16;;;18.27;36.54
66396;BME280;53207;51.378;-1.342;2023-02-04T06:08:10;102318.57;;;18.35;36.41
66396;BME280;53207;51.378;-1.342;2023-02-04T06:10:37;102314.52;;;18.30;36.48
66396;BME280;53207;51.378;-1.342;2023-02-04T06:13:04;102314.66;;;17.79;36.47
66396;BME280;53207;51.378;-1.342;2023-02-04T06:15:31;102316.61;;;18.22;36.54
66396;BME280;53207;51.378;-1.342;2023-02-04T06:17:59;102319.45;;;18.26;36.49
66396;BME280;53207;51.378;-1.342;2023-02-04T06:20:26;102320.39;;;18.05;36.41
66396;BME280;53207;51.378;-1.342;2023-02-04T06:22:53;102321.49;;;18.24;36.45
66396;BME280;53207;51.378;-1.342;2023-02-04T06:25:21;102325.77;;;18.18;36.53
66396;BME280;53207;51.378;-1.342;2023-02-04T06:27:48;102326.49;;;18.50;36.47
66396;BME280;53207;51.378;-1.342;2023-02-04T06:30:17;102331.35;;;18.20;36.54
66396;BME280;53207;51.378;-1.342;2023-02-04T06:32:44;102330.34;;;18.13;36.60
66396;BME280;53207;51.378;-1.342;2023-02-04T06:35:12;102333.40;;;18.17;36.56
66396;BME280;53207;51.378;-1.342;2023-02-04T06:37:39;102331.35;;;18.62;36.59
66396;BME280;53207;51.378;-1.342;2023-02-04T06:40:07;102332.68;;;18.08;36.66
66396;BME280;53207;51.378;-1.342;2023-02-04T06:42:35;102334.96;;;18.12;36.62
66396;BME280;53207;51.378;-1.342;2023-02-04T06:45:02;102337.10;;;18.15;36.56
66396;BME280;53207;51.378;-1.342;2023-02-04T06:47:30;102338.13;;;18.07;36.63
66396;BME280;53207;51.378;-1.342;2023-02-04T06:49:57;102339.16;;;18.14;36.53
66396;BME280;53207;51.378;-1.342;2023-02-04T06:52:24;102338.23;;;18.16;36.52
66396;BME280;53207;51.378;-1.342;2023-02-04T06:54:52;102341.43;;;18.13;36.50
66396;BME280;53207;51.378;-1.342;2023-02-04T06:57:19;102340.43;;;18.10;36.54
66396;BME280;53207;51.378;-1.342;2023-02-04T06:59:46;102342.51;;;18.07;36.56
66396;BME280;53207;51.378;-1.342;2023-02-04T07:02:14;102341.97;;;18.36;36.53
66396;BME280;53207;51.378;-1.342;2023-02-04T07:04:41;102343.48;;;18.02;36.61
66396;BME280;53207;51.378;-1.342;2023-02-04T07:07:08;102342.89;;;18.04;36.60
66396;BME280;53207;51.378;-1.342;2023-02-04T07:09:35;102340.99;;;18.07;36.61
66396;BME280;53207;51.378;-1.342;2023-02-04T07:12:03;102339.20;;;18.30;36.34
66396;BME280;53207;51.378;-1.342;2023-02-04T07:14:31;102337.31;;;18.43;36.19
66396;BME280;53207;51.378;-1.342;2023-02-04T07:16:58;102335.83;;;18.40;36.29
66396;BME280;53207;51.378;-1.342;2023-02-04T07:19:26;102336.45;;;18.51;36.38
66396;BME280;53207;51.378;-1.342;2023-02-04T07:21:53;102338.10;;;18.59;36.44
66396;BME280;53207;51.378;-1.342;2023-02-04T07:24:20;102343.23;;;18.73;36.39
66396;BME280;53207;51.378;-1.342;2023-02-04T07:26:48;102344.55;;;18.83;36.33
66396;BME280;53207;51.378;-1.342;2023-02-04T07:29:15;102347.59;;;18.98;36.21
66396;BME280;53207;51.378;-1.342;2023-02-04T07:31:42;102344.74;;;19.09;36.08
66396;BME280;53207;51.378;-1.342;2023-02-04T07:34:10;102342.77;;;18.99;35.95
66396;BME280;53207;51.378;-1.342;2023-02-04T07:36:37;102347.91;;;19.30;35.89
66396;BME280;53207;51.378;-1.342;2023-02-04T07:39:04;102354.15;;;19.23;35.73
66396;BME280;53207;51.378;-1.342;2023-02-04T07:41:31;102352.92;;;19.33;35.66
66396;BME280;53207;51.378;-1.342;2023-02-04T07:43:59;102354.41;;;19.67;35.58
66396;BME280;53207;51.378;-1.342;2023-02-04T07:46:26;102352.61;;;19.27;35.55
66396;BME280;53207;51.378;-1.342;2023-02-04T07:48:53;102355.96;;;19.63;35.52
66396;BME280;53207;51.378;-1.342;2023-02-04T07:51:20;102359.19;;;19.46;35.47
66396;BME280;53207;51.378;-1.342;2023-02-04T07:53:48;102360.79;;;19.53;35.45
66396;BME280;53207;51.378;-1.342;2023-02-04T07:56:15;102364.62;;;19.65;35.34
66396;BME280;53207;51.378;-1.342;2023-02-04T07:58:42;102367.68;;;19.66;35.35
66396;BME280;53207;51.378;-1.342;2023-02-04T08:01:09;102371.05;;;19.69;35.34
66396;BME280;53207;51.378;-1.342;2023-02-04T08:03:37;102376.48;;;19.72;35.28
66396;BME280;53207;51.378;-1.342;2023-02-04T08:06:04;102378.76;;;19.74;35.23
66396;BME280;53207;51.378;-1.342;2023-02-04T08:08:31;102381.55;;;19.75;35.20
66396;BME280;53207;51.378;-1.342;2023-02-04T08:10:59;102383.38;;;19.98;35.22
66396;BME280;53207;51.378;-1.342;2023-02-04T08:13:26;102385.58;;;19.77;35.16
66396;BME280;53207;51.378;-1.342;2023-02-04T08:15:53;102388.94;;;19.79;35.14
66396;BME280;53207;51.378;-1.342;2023-02-04T08:18:20;102394.91;;;19.79;35.15
66396;BME280;53207;51.378;-1.342;2023-02-04T08:20:48;102397.48;;;19.84;35.11
66396;BME280;53207;51.378;-1.342;2023-02-04T08:23:15;102399.06;;;19.81;35.17
66396;BME280;53207;51.378;-1.342;2023-02-04T08:25:42;102402.09;;;19.85;35.15
66396;BME280;53207;51.378;-1.342;2023-02-04T08:28:09;102403.71;;;19.80;35.22
66396;BME280;53207;51.378;-1.342;2023-02-04T08:30:37;102402.80;;;19.85;35.20
66396;BME280;53207;51.378;-1.342;2023-02-04T08:33:04;102404.30;;;19.86;35.23
66396;BME280;53207;51.378;-1.342;2023-02-04T08:35:31;102401.53;;;19.82;35.30
66396;BME280;53207;51.378;-1.342;2023-02-04T08:37:59;102398.92;;;19.82;35.31
66396;BME280;53207;51.378;-1.342;2023-02-04T08:40:26;102404.54;;;19.80;35.36
66396;BME280;53207;51.378;-1.342;2023-02-04T08:42:53;102410.29;;;19.75;35.49
66396;BME280;53207;51.378;-1.342;2023-02-04T08:45:20;102413.10;;;19.79;35.51
66396;BME280;53207;51.378;-1.342;2023-02-04T08:47:48;102417.87;;;19.79;35.54
66396;BME280;53207;51.378;-1.342;2023-02-04T08:50:15;102417.85;;;19.81;35.54
66396;BME280;53207;51.378;-1.342;2023-02-04T08:52:42;102418.09;;;19.83;35.53
66396;BME280;53207;51.378;-1.342;2023-02-04T08:55:10;102419.08;;;19.91;35.46
66396;BME280;53207;51.378;-1.342;2023-02-04T08:57:37;102422.65;;;19.94;35.44
66396;BME280;53207;51.378;-1.342;2023-02-04T09:00:05;102423.99;;;19.96;35.45
66396;BME280;53207;51.378;-1.342;2023-02-04T09:02:32;102426.52;;;19.98;35.40
66396;BME280;53207;51.378;-1.342;2023-02-04T09:05:00;102430.39;;;20.03;35.34
66396;BME280;53207;51.378;-1.342;2023-02-04T09:07:27;102435.22;;;20.01;35.37
66396;BME280;53207;51.378;-1.342;2023-02-04T09:09:54;102435.48;;;20.02;35.37
66396;BME280;53207;51.378;-1.342;2023-02-04T09:12:21;102436.85;;;20.04;35.39
66396;BME280;53207;51.378;-1.342;2023-02-04T09:14:49;102437.20;;;20.02;35.43
66396;BME280;53207;51.378;-1.342;2023-02-04T09:17:16;102439.51;;;20.05;35.43
66396;BME280;53207;51.378;-1.342;2023-02-04T09:19:43;102443.17;;;19.82;35.45
66396;BME280;53207;51.378;-1.342;2023-02-04T09:22:11;102447.32;;;19.86;35.40
66396;BME280;53207;51.378;-1.342;2023-02-04T09:24:38;102444.91;;;20.11;35.37
66396;BME280;53207;51.378;-1.342;2023-02-04T09:27:05;102446.65;;;19.93;35.35
66396;BME280;53207;51.378;-1.342;2023-02-04T09:29:32;102447.87;;;20.11;35.45
66396;BME280;53207;51.378;-1.342;2023-02-04T09:32:00;102447.23;;;20.20;35.34
66396;BME280;53207;51.378;-1.342;2023-02-04T09:34:27;102448.08;;;20.26;35.23
66396;BME280;53207;51.378;-1.342;2023-02-04T09:36:54;102449.63;;;20.23;35.23
66396;BME280;53207;51.378;-1.342;2023-02-04T09:39:21;102451.68;;;20.22;35.20
66396;BME280;53207;51.378;-1.342;2023-02-04T09:41:50;102451.90;;;19.82;35.14
66396;BME280;53207;51.378;-1.342;2023-02-04T09:44:19;102457.32;;;19.99;35.24
66396;BME280;53207;51.378;-1.342;2023-02-04T09:46:51;102461.26;;;20.24;35.23
66396;BME280;53207;51.378;-1.342;2023-02-04T09:49:19;102464.23;;;20.25;35.23
66396;BME280;53207;51.378;-1.342;2023-02-04T09:51:46;102466.45;;;20.04;35.57
66396;BME280;53207;51.378;-1.342;2023-02-04T09:54:17;102465.33;;;20.14;35.43
66396;BME280;53207;51.378;-1.342;2023-02-04T09:56:45;102468.01;;;19.99;35.59
66396;BME280;53207;51.378;-1.342;2023-02-04T09:59:15;102465.84;;;20.11;35.40
66396;BME280;53207;51.378;-1.342;2023-02-04T10:01:43;102466.86;;;20.12;35.38
66396;BME280;53207;51.378;-1.342;2023-02-04T10:04:12;102463.09;;;19.61;35.47
66396;BME280;53207;51.378;-1.342;2023-02-04T10:06:41;102463.97;;;20.07;35.46
66396;BME280;53207;51.378;-1.342;2023-02-04T10:09:10;102464.25;;;19.84;35.43
66396;BME280;53207;51.378;-1.342;2023-02-04T10:11:39;102467.94;;;20.06;35.40
66396;BME280;53207;51.378;-1.342;2023-02-04T10:14:13;102469.98;;;19.81;35.40
66396;BME280;53207;51.378;-1.342;2023-02-04T10:16:41;102470.26;;;20.03;35.37
66396;BME280;53207;51.378;-1.342;2023-02-04T10:19:12;102469.80;;;20.02;35.34
66396;BME280;53207;51.378;-1.342;2023-02-04T10:21:42;102475.34;;;19.77;35.34
66396;BME280;53207;51.378;-1.342;2023-02-04T10:24:13;102475.84;;;19.72;35.29
66396;BME280;53207;51.378;-1.342;2023-02-04T10:26:41;102477.84;;;19.89;35.29
66396;BME280;53207;51.378;-1.342;2023-02-04T10:29:14;102474.63;;;19.83;35.28
66396;BME280;53207;51.378;-1.342;2023-02-04T10:31:43;102473.84;;;19.84;35.16
66396;BME280;53207;51.378;-1.342;2023-02-04T10:34:13;102477.27;;;19.81;35.17
66396;BME280;53207;51.378;-1.342;2023-02-04T10:36:43;102478.58;;;19.77;35.12
66396;BME280;53207;51.378;-1.342;2023-02-04T10:39:13;102478.41;;;19.74;35.15
66396;BME280;53207;51.378;-1.342;2023-02-04T10:41:46;102481.68;;;19.67;35.19
66396;BME280;53207;51.378;-1.342;2023-02-04T10:44:15;102479.31;;;19.89;35.19
66396;BME280;53207;51.378;-1.342;2023-02-04T10:46:42;102480.99;;;19.58;35.25
66396;BME280;53207;51.378;-1.342;2023-02-04T10:49:20;102480.01;;;19.56;35.21
66396;BME280;53207;51.378;-1.342;2023-02-04T10:51:49;102482.25;;;19.50;35.25
66396;BME280;53207;51.378;-1.342;2023-02-04T10:54:18;102485.85;;;19.44;35.30
66396;BME280;53207;51.378;-1.342;2023-02-04T10:56:46;102484.22;;;19.33;35.39
66396;BME280;53207;51.378;-1.342;2023-02-04T10:59:21;102482.52;;;19.37;35.31
66396;BME280;53207;51.378;-1.342;2023-02-04T11:01:49;102483.29;;;19.31;35.35
66396;BME280;53207;51.378;-1.342;2023-02-04T11:04:16;102481.31;;;19.29;35.36
66396;BME280;53207;51.378;-1.342;2023-02-04T11:06:43;102486.61;;;19.62;35.26
66396;BME280;53207;51.378;-1.342;2023-02-04T11:09:12;102486.88;;;19.53;35.33
66396;BME280;53207;51.378;-1.342;2023-02-04T11:11:45;102482.82;;;19.32;35.27
66396;BME280;53207;51.378;-1.342;2023-02-04T11:14:29;102484.25;;;19.31;35.23
66396;BME280;53207;51.378;-1.342;2023-02-04T11:16:57;102486.37;;;19.57;35.22
66396;BME280;53207;51.378;-1.342;2023-02-04T11:19:39;102486.37;;;19.30;35.22
66396;BME280;53207;51.378;-1.342;2023-02-04T11:22:20;102488.95;;;19.55;35.20
66396;BME280;53207;51.378;-1.342;2023-02-04T11:24:48;102486.50;;;19.27;35.20
66396;BME280;53207;51.378;-1.342;2023-02-04T11:27:22;102487.53;;;19.18;35.29
66396;BME280;53207;51.378;-1.342;2023-02-04T11:29:50;102486.17;;;19.43;35.29
66396;BME280;53207;51.378;-1.342;2023-02-04T11:32:35;102488.95;;;19.16;35.29
66396;BME280;53207;51.378;-1.342;2023-02-04T11:35:20;102489.68;;;19.12;35.29
66396;BME280;53207;51.378;-1.342;2023-02-04T11:37:48;102493.22;;;19.30;35.37
66396;BME280;53207;51.378;-1.342;2023-02-04T11:40:23;102493.96;;;19.29;35.36
66396;BME280;53207;51.378;-1.342;2023-02-04T11:42:57;102494.79;;;19.28;35.35
66396;BME280;53207;51.378;-1.342;2023-02-04T11:45:28;102497.41;;;18.98;35.37
66396;BME280;53207;51.378;-1.342;2023-02-04T11:47:58;102496.93;;;19.29;35.26
66396;BME280;53207;51.378;-1.342;2023-02-04T11:50:28;102496.27;;;19.18;35.40
66396;BME280;53207;51.378;-1.342;2023-02-04T11:52:56;102492.07;;;19.21;35.34
66396;BME280;53207;51.378;-1.342;2023-02-04T11:55:24;102493.76;;;18.90;35.37
66396;BME280;53207;51.378;-1.342;2023-02-04T11:57:52;102491.41;;;19.15;35.36
66396;BME280;53207;51.378;-1.342;2023-02-04T12:00:21;102489.79;;;18.83;35.40
66396;BME280;53207;51.378;-1.342;2023-02-04T12:02:50;102486.86;;;19.14;35.32
66396;BME280;53207;51.378;-1.342;2023-02-04T12:05:20;102483.61;;;18.79;35.36
66396;BME280;53207;51.378;-1.342;2023-02-04T12:07:48;102486.50;;;19.07;35.34
66396;BME280;53207;51.378;-1.342;2023-02-04T12:10:24;102491.64;;;19.04;35.37
66396;BME280;53207;51.378;-1.342;2023-02-04T12:12:52;102495.25;;;19.19;35.43
66396;BME280;53207;51.378;-1.342;2023-02-04T12:15:22;102501.87;;;18.97;35.40
66396;BME280;53207;51.378;-1.342;2023-02-04T12:18:01;102507.55;;;18.99;35.34
66396;BME280;53207;51.378;-1.342;2023-02-04T12:20:28;102510.17;;;18.95;35.37
66396;BME280;53207;51.378;-1.342;2023-02-04T12:22:55;102510.21;;;19.16;35.36
66396;BME280;53207;51.378;-1.342;2023-02-04T12:25:22;102500.86;;;19.01;35.25
66396;BME280;53207;51.378;-1.342;2023-02-04T12:27:49;102499.51;;;19.07;35.41
66396;BME280;53207;51.378;-1.342;2023-02-04T12:30:17;102497.27;;;18.90;35.33
66396;BME280;53207;51.378;-1.342;2023-02-04T12:32:44;102498.10;;;18.57;35.39
66396;BME280;53207;51.378;-1.342;2023-02-04T12:35:11;102493.88;;;19.03;35.39
66396;BME280;53207;51.378;-1.342;2023-02-04T12:37:39;102498.80;;;19.03;35.38
66396;BME280;53207;51.378;-1.342;2023-02-04T12:40:07;102498.67;;;18.81;35.36
66396;BME280;53207;51.378;-1.342;2023-02-04T12:42:34;102496.13;;;19.00;35.39
66396;BME280;53207;51.378;-1.342;2023-02-04T12:45:02;102495.20;;;18.55;35.32